Time;durP1;ratioP1;P1;durP2;ratioP2;P2;SDS_P1;SDS_P2;PMS_P1;PMS_P2;Temp;Humidity;BMP_temperature;BMP_pressure;BME280_temperature;BME280_humidity;BME280_pressure;Samples;Min_cycle;Max_cycle;Signal;HPM_P1;HPM_P2
2023/12/11 00:01:37;;;;;;;2.25;1.27;;;9.00;99.90;;;;;;5000852;28;20443;-78
2023/12/11 00:04:03;;;;;;;10.43;0.70;;;9.00;99.90;;;;;;5023735;28;20063;-79
2023/12/11 00:06:29;;;;;;;3.17;0.52;;;8.90;99.90;;;;;;5009795;28;20595;-79
2023/12/11 00:08:54;;;;;;;7.90;1.27;;;8.90;99.90;;;;;;5026758;28;20037;-79
2023/12/11 00:11:20;;;;;;;8.02;0.77;;;8.90;99.90;;;;;;5023564;28;20110;-79
2023/12/11 00:13:46;;;;;;;3.65;0.55;;;8.80;99.90;;;;;;5025377;28;20034;-79
2023/12/11 00:16:12;;;;;;;1.02;0.50;;;8.80;99.90;;;;;;5028510;28;20051;-79
2023/12/11 00:18:37;;;;;;;3.28;1.73;;;8.80;99.90;;;;;;5006151;28;20491;-79
2023/12/11 00:21:03;;;;;;;6.97;1.58;;;8.80;99.90;;;;;;5022439;28;20133;-79
2023/12/11 00:23:29;;;;;;;2.58;1.20;;;8.80;99.90;;;;;;5022462;28;20427;-79
2023/12/11 00:25:55;;;;;;;5.05;0.65;;;8.70;99.90;;;;;;5006866;28;20030;-78
2023/12/11 00:28:21;;;;;;;3.08;1.25;;;8.70;99.90;;;;;;5021542;28;20446;-79
2023/12/11 00:30:47;;;;;;;4.10;0.88;;;8.70;99.90;;;;;;5005340;28;20088;-79
2023/12/11 00:33:12;;;;;;;7.63;0.95;;;8.70;99.90;;;;;;5023832;28;20045;-79
2023/12/11 00:35:38;;;;;;;5.65;1.00;;;8.70;99.90;;;;;;5026035;28;20046;-79
2023/12/11 00:38:04;;;;;;;2.58;0.93;;;8.70;99.90;;;;;;5023950;28;20554;-79
2023/12/11 00:40:29;;;;;;;3.70;0.82;;;8.70;99.90;;;;;;5023931;28;20568;-79
2023/12/11 00:42:55;;;;;;;1.50;0.60;;;8.70;99.90;;;;;;5002968;28;20176;-79
2023/12/11 00:45:21;;;;;;;8.65;1.20;;;8.70;99.90;;;;;;5022696;28;20052;-79
2023/12/11 00:47:46;;;;;;;7.68;1.02;;;8.70;99.90;;;;;;5003851;28;20116;-78
2023/12/11 00:50:12;;;;;;;4.40;0.88;;;8.70;99.90;;;;;;5003197;28;20132;-78
2023/12/11 00:52:38;;;;;;;3.13;0.93;;;8.70;99.90;;;;;;5004432;28;20043;-78
2023/12/11 00:55:04;;;;;;;2.28;1.13;;;8.70;99.90;;;;;;5022793;28;20407;-79
2023/12/11 00:57:30;;;;;;;1.17;0.63;;;8.70;99.90;;;;;;5018158;28;20050;-79
2023/12/11 00:59:55;;;;;;;3.78;0.60;;;8.70;99.90;;;;;;5002798;28;20056;-79
2023/12/11 01:02:21;;;;;;;5.30;0.80;;;8.70;99.90;;;;;;5003599;28;20120;-78
2023/12/11 01:04:46;;;;;;;6.32;1.95;;;8.70;99.90;;;;;;5027964;28;20091;-79
2023/12/11 01:07:12;;;;;;;3.03;0.93;;;8.70;99.90;;;;;;5002342;28;20374;-79
2023/12/11 01:09:38;;;;;;;5.47;1.00;;;8.80;99.90;;;;;;5004546;28;20071;-79
2023/12/11 01:12:04;;;;;;;8.43;2.78;;;8.80;99.90;;;;;;5022907;28;20040;-79
2023/12/11 01:14:30;;;;;;;4.00;0.85;;;8.80;99.90;;;;;;5003900;28;20474;-79
2023/12/11 01:16:56;;;;;;;4.60;0.57;;;8.80;99.90;;;;;;5003555;28;20499;-79
2023/12/11 01:19:22;;;;;;;5.18;0.43;;;8.80;99.90;;;;;;5022785;28;20091;-79
2023/12/11 01:21:47;;;;;;;5.63;0.50;;;8.80;99.90;;;;;;5022610;28;20120;-78
2023/12/11 01:24:13;;;;;;;1.63;0.93;;;8.80;99.90;;;;;;5023216;28;20048;-78
2023/12/11 01:26:39;;;;;;;5.18;1.00;;;8.80;99.90;;;;;;5023825;28;20543;-78
2023/12/11 01:29:05;;;;;;;2.45;0.75;;;8.80;99.90;;;;;;5013311;28;20438;-79
2023/12/11 01:31:31;;;;;;;2.85;0.60;;;8.80;99.90;;;;;;5021681;28;20131;-79
2023/12/11 01:33:57;;;;;;;1.88;0.85;;;8.80;99.90;;;;;;5022141;28;20072;-79
2023/12/11 01:36:22;;;;;;;1.38;0.52;;;8.80;99.90;;;;;;5006971;28;20034;-79
2023/12/11 01:38:50;;;;;;;6.88;1.65;;;8.80;99.90;;;;;;5011076;28;20041;-79
2023/12/11 01:41:16;;;;;;;3.00;0.93;;;8.80;99.90;;;;;;5011558;28;20128;-79
2023/12/11 01:43:54;;;;;;;3.05;1.02;;;8.90;99.90;;;;;;5027736;28;20415;-79
2023/12/11 01:46:21;;;;;;;3.28;1.35;;;8.80;99.90;;;;;;5025330;28;20037;-79
2023/12/11 01:48:49;;;;;;;5.35;0.68;;;8.90;99.90;;;;;;5011045;28;20030;-79
2023/12/11 01:51:16;;;;;;;4.70;0.52;;;8.90;99.90;;;;;;5008943;28;20511;-79
2023/12/11 01:53:44;;;;;;;4.32;2.63;;;8.90;99.90;;;;;;5021009;28;20034;-79
2023/12/11 01:56:10;;;;;;;12.82;0.77;;;8.90;99.90;;;;;;5006390;28;20034;-80
2023/12/11 01:58:36;;;;;;;5.10;1.02;;;8.90;99.90;;;;;;5023178;28;20033;-79
2023/12/11 02:01:01;;;;;;;3.05;0.40;;;8.90;99.90;;;;;;5003153;28;20638;-79
2023/12/11 02:03:28;;;;;;;5.28;1.10;;;8.90;99.90;;;;;;5021374;28;20052;-79
2023/12/11 02:05:54;;;;;;;2.92;1.30;;;8.80;99.90;;;;;;5008245;28;20040;-79
2023/12/11 02:08:19;;;;;;;4.35;0.47;;;8.80;99.90;;;;;;5021675;28;20041;-79
2023/12/11 02:10:45;;;;;;;5.32;0.75;;;8.80;99.90;;;;;;5020048;28;20064;-79
2023/12/11 02:13:11;;;;;;;4.15;1.10;;;8.80;99.90;;;;;;5004373;28;20588;-79
2023/12/11 02:15:42;;;;;;;6.70;0.98;;;8.80;99.90;;;;;;5005496;28;20083;-80
2023/12/11 02:18:09;;;;;;;6.25;0.68;;;8.80;99.90;;;;;;5021658;28;20049;-79
2023/12/11 02:20:36;;;;;;;8.10;1.02;;;8.80;99.90;;;;;;5023092;28;20041;-80
2023/12/11 02:23:06;;;;;;;3.03;0.80;;;8.80;99.90;;;;;;5021045;28;20053;-79
2023/12/11 02:25:35;;;;;;;5.47;0.93;;;8.80;99.90;;;;;;5003252;28;20198;-80
2023/12/11 02:28:02;;;;;;;4.47;0.57;;;8.80;99.90;;;;;;5007246;28;20116;-79
2023/12/11 02:30:31;;;;;;;3.67;1.35;;;8.80;99.90;;;;;;5008072;28;20052;-79
2023/12/11 02:32:57;;;;;;;2.47;0.98;;;8.80;99.90;;;;;;5007917;28;20413;-79
2023/12/11 02:35:22;;;;;;;15.00;1.30;;;8.90;99.90;;;;;;5026778;28;20045;-79
2023/12/11 02:37:48;;;;;;;2.05;1.00;;;8.90;99.90;;;;;;5007468;28;20779;-79
2023/12/11 02:40:14;;;;;;;3.38;0.88;;;8.90;99.90;;;;;;5007362;28;20045;-79
2023/12/11 02:42:46;;;;;;;2.05;0.65;;;8.90;99.90;;;;;;5024023;28;20099;-79
2023/12/11 02:45:12;;;;;;;5.30;1.08;;;8.90;99.90;;;;;;5020734;28;20329;-80
2023/12/11 02:47:38;;;;;;;20.75;1.77;;;8.90;99.90;;;;;;5024183;28;20037;-79
2023/12/11 02:50:04;;;;;;;9.23;1.00;;;8.90;99.90;;;;;;5023797;28;20402;-79
2023/12/11 02:52:30;;;;;;;2.83;0.88;;;9.00;99.90;;;;;;5025530;28;21397;-79
2023/12/11 02:54:56;;;;;;;5.00;1.15;;;9.00;99.90;;;;;;5026528;28;20076;-79
2023/12/11 02:57:21;;;;;;;1.67;0.70;;;9.00;99.90;;;;;;5007037;28;20068;-79
2023/12/11 02:59:47;;;;;;;1.23;0.40;;;9.00;99.90;;;;;;5007890;28;20045;-78
2023/12/11 03:02:13;;;;;;;1.90;0.60;;;9.00;99.90;;;;;;5022527;28;20527;-79
2023/12/11 03:04:38;;;;;;;3.03;0.60;;;9.00;99.90;;;;;;5008952;28;20041;-80
2023/12/11 03:07:04;;;;;;;3.67;1.08;;;9.00;99.90;;;;;;5022667;28;20034;-79
2023/12/11 03:09:30;;;;;;;11.50;1.25;;;9.10;99.90;;;;;;5025009;28;20124;-79
2023/12/11 03:11:55;;;;;;;4.15;0.77;;;9.00;99.90;;;;;;5022200;28;20192;-79
2023/12/11 03:14:21;;;;;;;5.90;1.33;;;9.10;99.90;;;;;;5023869;28;20041;-79
2023/12/11 03:16:48;;;;;;;2.20;0.80;;;9.00;99.90;;;;;;4961141;28;1142178;-79
2023/12/11 03:19:14;;;;;;;3.90;0.95;;;9.10;99.90;;;;;;5024982;28;20046;-79
2023/12/11 03:21:39;;;;;;;3.83;0.93;;;9.00;99.90;;;;;;5008405;28;20037;-79
2023/12/11 03:24:05;;;;;;;5.28;1.05;;;9.00;99.90;;;;;;5024125;28;20040;-79
2023/12/11 03:26:31;;;;;;;5.25;1.13;;;9.10;99.90;;;;;;5026752;28;20033;-79
2023/12/11 03:28:56;;;;;;;1.60;1.25;;;9.10;99.90;;;;;;5013358;28;20574;-79
2023/12/11 03:31:22;;;;;;;4.40;0.55;;;9.10;99.90;;;;;;5026246;28;20087;-80
2023/12/11 03:33:48;;;;;;;7.97;0.93;;;9.20;99.90;;;;;;5027399;28;20522;-79
2023/12/11 03:36:13;;;;;;;5.70;1.10;;;9.10;99.90;;;;;;5006817;28;20042;-79
2023/12/11 03:38:39;;;;;;;1.15;0.52;;;9.20;99.90;;;;;;5002777;28;20127;-80
2023/12/11 03:41:05;;;;;;;1.17;0.45;;;9.20;99.90;;;;;;5023780;28;20188;-79
2023/12/11 03:43:31;;;;;;;5.25;1.55;;;9.20;99.90;;;;;;5024642;28;20037;-79
2023/12/11 03:45:56;;;;;;;5.65;0.93;;;9.20;99.90;;;;;;5008793;28;20034;-80
2023/12/11 03:48:22;;;;;;;3.30;1.27;;;9.20;99.90;;;;;;5022705;28;21549;-79
2023/12/11 03:50:48;;;;;;;4.47;0.50;;;9.20;99.90;;;;;;5022845;28;20033;-79
2023/12/11 03:53:14;;;;;;;5.35;1.65;;;9.20;99.90;;;;;;5004600;28;20125;-79
2023/12/11 03:55:39;;;;;;;3.58;0.98;;;9.20;99.90;;;;;;5007052;28;20044;-79
2023/12/11 03:58:05;;;;;;;5.72;0.77;;;9.20;99.90;;;;;;5023807;28;20033;-79
2023/12/11 04:00:31;;;;;;;3.03;0.38;;;9.20;99.90;;;;;;5023153;28;21395;-79
2023/12/11 04:02:56;;;;;;;7.68;1.45;;;9.20;99.90;;;;;;5005129;28;20132;-79
2023/12/11 04:05:22;;;;;;;3.25;0.88;;;9.20;99.90;;;;;;5022471;28;20384;-79
2023/12/11 04:07:48;;;;;;;0.70;0.25;;;9.20;99.90;;;;;;5003155;28;20117;-79
2023/12/11 04:10:14;;;;;;;13.77;1.15;;;9.20;99.90;;;;;;5023937;28;20037;-79
2023/12/11 04:12:42;;;;;;;3.58;1.10;;;9.20;99.90;;;;;;5009206;28;20034;-79
2023/12/11 04:15:08;;;;;;;3.50;1.20;;;9.20;99.90;;;;;;5020061;28;20042;-79
2023/12/11 04:17:33;;;;;;;5.43;0.90;;;9.20;99.90;;;;;;5023588;28;20068;-80
2023/12/11 04:19:59;;;;;;;12.48;1.02;;;9.20;99.90;;;;;;5023205;28;20044;-80
2023/12/11 04:22:25;;;;;;;7.35;1.20;;;9.20;99.90;;;;;;5002232;28;20128;-79
2023/12/11 04:24:50;;;;;;;1.27;0.65;;;9.20;99.90;;;;;;5023947;28;20037;-79
2023/12/11 04:27:16;;;;;;;6.75;0.73;;;9.20;99.90;;;;;;5023851;28;20561;-79
2023/12/11 04:29:42;;;;;;;3.95;0.90;;;9.20;99.90;;;;;;5023813;28;20072;-79
2023/12/11 04:32:08;;;;;;;4.63;0.98;;;9.20;99.90;;;;;;5022968;28;20037;-80
2023/12/11 04:34:33;;;;;;;5.15;0.88;;;9.20;99.90;;;;;;5024044;28;20124;-79
2023/12/11 04:36:59;;;;;;;2.00;0.35;;;9.20;99.90;;;;;;5016806;28;20158;-79
2023/12/11 04:39:25;;;;;;;4.75;0.68;;;9.20;99.90;;;;;;5005445;28;20609;-79
2023/12/11 04:41:50;;;;;;;5.50;0.95;;;9.20;99.90;;;;;;5005739;28;21452;-80
2023/12/11 04:44:16;;;;;;;4.00;1.73;;;9.20;99.90;;;;;;4998437;28;20038;-80
2023/12/11 04:46:41;;;;;;;8.35;0.70;;;9.20;99.90;;;;;;5023838;28;20091;-80
2023/12/11 04:49:07;;;;;;;1.40;0.40;;;9.20;99.90;;;;;;5004311;28;20034;-80
2023/12/11 04:51:33;;;;;;;8.48;0.85;;;9.20;99.90;;;;;;5022528;28;20029;-79
2023/12/11 04:53:59;;;;;;;4.55;0.70;;;9.20;99.90;;;;;;5006353;28;20056;-79
2023/12/11 04:56:24;;;;;;;2.55;0.80;;;9.20;99.90;;;;;;5021204;28;20491;-79
2023/12/11 04:58:50;;;;;;;1.02;0.85;;;9.10;99.90;;;;;;5024132;28;20037;-79
2023/12/11 05:01:16;;;;;;;6.15;1.10;;;9.10;99.90;;;;;;5006914;28;20038;-79
2023/12/11 05:03:41;;;;;;;6.05;1.90;;;9.10;99.90;;;;;;5022863;28;20037;-79
2023/12/11 05:06:08;;;;;;;4.97;1.02;;;9.10;99.90;;;;;;5007754;28;20132;-80
2023/12/11 05:08:34;;;;;;;1.42;0.55;;;9.10;99.90;;;;;;5023622;28;20033;-79
2023/12/11 05:10:59;;;;;;;3.03;0.65;;;9.10;99.90;;;;;;5002066;28;20061;-80
2023/12/11 05:13:25;;;;;;;2.58;0.68;;;9.10;99.90;;;;;;5025885;28;20046;-80
2023/12/11 05:15:51;;;;;;;2.33;0.73;;;9.10;99.90;;;;;;5006537;28;20052;-79
2023/12/11 05:18:16;;;;;;;8.25;1.30;;;9.10;99.90;;;;;;5005869;28;20411;-80
2023/12/11 05:20:42;;;;;;;5.43;1.45;;;9.10;99.90;;;;;;5022878;28;20414;-79
2023/12/11 05:23:08;;;;;;;3.75;1.00;;;9.10;99.90;;;;;;5006035;28;20065;-79
2023/12/11 05:25:33;;;;;;;2.42;0.73;;;9.10;99.90;;;;;;5022745;28;20041;-79
2023/12/11 05:27:59;;;;;;;5.95;1.20;;;9.10;99.90;;;;;;5021006;28;20542;-80
2023/12/11 05:30:25;;;;;;;3.47;0.57;;;9.00;99.90;;;;;;5024196;28;20064;-79
2023/12/11 05:32:50;;;;;;;2.58;0.85;;;9.00;99.90;;;;;;5021103;28;20135;-79
2023/12/11 05:35:16;;;;;;;5.15;1.15;;;9.00;99.90;;;;;;5005160;28;20045;-79
2023/12/11 05:37:42;;;;;;;2.83;0.70;;;9.00;99.90;;;;;;5018739;28;20232;-79
2023/12/11 05:40:08;;;;;;;4.75;1.10;;;9.10;99.90;;;;;;5006557;28;20136;-80
2023/12/11 05:42:34;;;;;;;3.50;0.80;;;9.10;99.90;;;;;;5001187;28;20030;-79
2023/12/11 05:44:59;;;;;;;1.88;0.93;;;9.10;99.90;;;;;;5002362;28;20091;-79
2023/12/11 05:47:25;;;;;;;2.30;0.77;;;9.10;99.90;;;;;;5007658;28;20038;-79
2023/12/11 05:49:51;;;;;;;2.22;0.50;;;9.10;99.90;;;;;;5005225;28;20048;-80
2023/12/11 05:52:17;;;;;;;5.10;0.60;;;9.20;99.90;;;;;;5019794;28;20060;-79
2023/12/11 05:54:42;;;;;;;1.75;0.60;;;9.20;99.90;;;;;;4998024;28;20045;-80
2023/12/11 05:57:08;;;;;;;2.47;0.85;;;9.10;99.90;;;;;;5004947;28;20033;-80
2023/12/11 05:59:34;;;;;;;3.75;0.55;;;9.20;99.90;;;;;;5020174;28;20218;-79
2023/12/11 06:01:59;;;;;;;1.25;0.40;;;9.20;99.90;;;;;;5018667;28;20069;-79
2023/12/11 06:04:25;;;;;;;0.93;0.30;;;9.20;99.90;;;;;;5005015;28;20033;-78
2023/12/11 06:06:50;;;;;;;1.45;0.85;;;9.20;99.90;;;;;;5015324;28;20048;-80
2023/12/11 06:09:16;;;;;;;4.00;1.48;;;9.20;99.90;;;;;;5018023;28;20032;-81
2023/12/11 06:11:42;;;;;;;0.90;0.32;;;9.10;99.90;;;;;;5017592;28;20376;-81
2023/12/11 06:14:08;;;;;;;1.38;0.40;;;9.20;99.90;;;;;;5004977;28;20061;-79
2023/12/11 06:16:33;;;;;;;4.85;0.77;;;9.20;99.90;;;;;;5003807;28;20037;-79
2023/12/11 06:18:59;;;;;;;4.57;0.35;;;9.20;99.90;;;;;;5017353;28;20398;-79
2023/12/11 06:21:25;;;;;;;4.90;0.85;;;9.20;99.90;;;;;;5002056;28;20044;-79
2023/12/11 06:23:51;;;;;;;0.77;0.20;;;9.20;99.90;;;;;;5004420;28;20407;-79
2023/12/11 06:26:30;;;;;;;1.02;0.38;;;9.20;99.90;;;;;;5011055;28;20037;-79
2023/12/11 06:29:00;;;;;;;2.20;0.22;;;9.20;99.90;;;;;;5011247;28;20049;-79
2023/12/11 06:31:27;;;;;;;1.77;0.50;;;9.20;99.90;;;;;;5011537;28;20064;-79
2023/12/11 06:33:53;;;;;;;4.90;0.85;;;9.20;99.90;;;;;;5027833;28;20053;-79
2023/12/11 06:36:20;;;;;;;3.97;0.68;;;9.20;99.90;;;;;;5027180;28;20046;-78
2023/12/11 06:38:45;;;;;;;2.08;0.50;;;9.20;99.90;;;;;;5027213;28;20531;-79
2023/12/11 06:41:11;;;;;;;1.23;0.43;;;9.20;99.90;;;;;;5011409;28;20087;-79
2023/12/11 06:43:36;;;;;;;4.95;0.68;;;9.20;99.90;;;;;;5027681;28;20175;-78
2023/12/11 06:46:03;;;;;;;2.53;0.35;;;9.20;99.90;;;;;;5011589;28;20041;-78
2023/12/11 06:48:29;;;;;;;8.23;0.80;;;9.20;99.90;;;;;;5027231;28;20080;-79
2023/12/11 06:50:55;;;;;;;7.00;1.08;;;9.20;99.90;;;;;;5010971;28;20117;-79
2023/12/11 06:53:21;;;;;;;1.73;0.32;;;9.20;99.90;;;;;;5010537;28;20187;-79
2023/12/11 06:55:46;;;;;;;2.08;0.68;;;9.20;99.90;;;;;;5027840;28;20033;-79
2023/12/11 06:58:12;;;;;;;3.05;0.32;;;9.20;99.90;;;;;;5027855;28;20049;-79
2023/12/11 07:00:38;;;;;;;4.60;0.70;;;9.20;99.90;;;;;;5027627;28;20060;-80
2023/12/11 07:03:04;;;;;;;3.38;0.65;;;9.20;99.90;;;;;;5027227;28;20049;-79
2023/12/11 07:05:29;;;;;;;0.82;0.47;;;9.20;99.90;;;;;;5011890;28;20033;-80
2023/12/11 07:07:55;;;;;;;2.85;0.32;;;9.30;99.90;;;;;;5030377;28;20041;-79
2023/12/11 07:10:21;;;;;;;4.22;0.70;;;9.20;99.90;;;;;;5031271;28;20037;-79
2023/12/11 07:12:47;;;;;;;1.33;0.50;;;9.30;99.90;;;;;;5031445;28;20048;-80
2023/12/11 07:15:13;;;;;;;1.77;0.30;;;9.30;99.90;;;;;;5014650;28;20555;-79
2023/12/11 07:17:39;;;;;;;4.10;0.63;;;9.20;99.90;;;;;;5030716;28;20128;-79
2023/12/11 07:20:05;;;;;;;2.15;0.30;;;9.30;99.90;;;;;;5030749;28;20037;-79
2023/12/11 07:22:33;;;;;;;2.30;0.47;;;9.30;99.90;;;;;;5030156;28;20060;-79
2023/12/11 07:24:59;;;;;;;3.15;0.60;;;9.20;99.90;;;;;;5014977;28;20438;-80
2023/12/11 07:27:24;;;;;;;2.30;0.60;;;9.30;99.90;;;;;;5014475;28;20038;-79
2023/12/11 07:29:50;;;;;;;3.92;0.50;;;9.20;99.90;;;;;;5014670;28;20090;-79
2023/12/11 07:32:16;;;;;;;3.47;1.17;;;9.20;99.90;;;;;;5014187;28;20041;-79
2023/12/11 07:34:42;;;;;;;8.10;0.80;;;9.20;99.90;;;;;;5014231;28;20046;-79
2023/12/11 07:37:09;;;;;;;4.78;0.60;;;9.20;99.90;;;;;;5029835;28;20060;-79
2023/12/11 07:39:34;;;;;;;2.88;0.93;;;9.20;99.90;;;;;;5031088;28;20458;-79
2023/12/11 07:42:00;;;;;;;3.75;0.50;;;9.20;99.90;;;;;;5014142;28;20559;-79
2023/12/11 07:44:26;;;;;;;2.45;0.85;;;9.20;99.90;;;;;;5031098;28;20040;-79
2023/12/11 07:46:52;;;;;;;6.15;0.52;;;9.20;99.90;;;;;;5030973;28;20041;-79
2023/12/11 07:49:18;;;;;;;3.97;0.55;;;9.20;99.90;;;;;;5014322;28;20055;-79
2023/12/11 07:51:44;;;;;;;0.32;0.28;;;9.20;99.90;;;;;;5013137;28;20483;-79
2023/12/11 07:54:10;;;;;;;4.90;0.60;;;9.10;99.90;;;;;;5014250;28;20376;-79
2023/12/11 07:56:37;;;;;;;2.13;0.50;;;9.10;99.90;;;;;;5030391;28;20041;-79
2023/12/11 07:59:03;;;;;;;5.90;0.93;;;9.20;99.90;;;;;;5030320;28;20045;-79
2023/12/11 08:01:32;;;;;;;3.78;0.55;;;9.20;99.90;;;;;;5030100;28;20486;-80
2023/12/11 08:03:58;;;;;;;4.30;0.85;;;9.20;99.90;;;;;;5013499;28;20050;-79
2023/12/11 08:06:24;;;;;;;0.55;0.30;;;9.10;99.90;;;;;;5029744;28;20037;-79
2023/12/11 08:08:49;;;;;;;2.92;0.35;;;9.10;99.90;;;;;;5013637;28;20041;-79
2023/12/11 08:11:17;;;;;;;2.95;0.73;;;9.10;99.90;;;;;;5013544;28;20499;-79
2023/12/11 08:13:43;;;;;;;0.30;0.20;;;9.20;99.90;;;;;;5030236;28;20049;-79
2023/12/11 08:16:10;;;;;;;2.53;0.43;;;9.10;99.90;;;;;;5013378;28;20085;-80
2023/12/11 08:18:36;;;;;;;1.85;0.45;;;9.10;99.90;;;;;;5012243;28;20428;-79
2023/12/11 08:21:04;;;;;;;1.30;0.52;;;9.10;99.90;;;;;;5013334;28;20049;-79
2023/12/11 08:23:29;;;;;;;2.92;0.43;;;9.10;99.90;;;;;;5012342;28;20073;-80
2023/12/11 08:25:55;;;;;;;0.50;0.38;;;9.10;99.90;;;;;;5013876;28;20223;-79
2023/12/11 08:28:21;;;;;;;1.15;0.47;;;9.10;99.90;;;;;;5029899;28;20040;-79
2023/12/11 08:30:47;;;;;;;1.13;0.30;;;9.10;99.90;;;;;;5029988;28;20095;-79
2023/12/11 08:33:13;;;;;;;0.95;0.30;;;9.10;99.90;;;;;;5012704;28;20348;-79
2023/12/11 08:35:39;;;;;;;0.68;0.30;;;9.10;99.90;;;;;;5029737;28;20034;-80
2023/12/11 08:38:05;;;;;;;5.93;1.00;;;9.10;99.90;;;;;;5028866;28;20295;-79
2023/12/11 08:40:31;;;;;;;0.52;0.40;;;9.10;99.90;;;;;;5013440;28;20069;-79
2023/12/11 08:42:57;;;;;;;2.83;0.28;;;9.10;99.90;;;;;;5012936;28;20132;-80
2023/12/11 08:45:23;;;;;;;0.30;0.22;;;9.10;99.90;;;;;;5029310;28;20037;-79
2023/12/11 08:47:49;;;;;;;0.80;0.35;;;9.10;99.90;;;;;;5028544;28;20048;-80
2023/12/11 08:50:15;;;;;;;2.75;0.30;;;9.10;99.90;;;;;;5028724;28;20120;-80
2023/12/11 08:52:43;;;;;;;0.50;0.30;;;9.10;99.90;;;;;;5011030;28;20041;-80
2023/12/11 08:55:08;;;;;;;2.30;0.40;;;9.10;99.90;;;;;;5012025;28;20091;-80
2023/12/11 08:57:34;;;;;;;1.25;0.30;;;9.10;99.90;;;;;;5012012;28;20041;-80
2023/12/11 09:00:01;;;;;;;2.80;0.40;;;9.10;99.90;;;;;;5028223;28;20432;-80
2023/12/11 09:02:26;;;;;;;0.60;0.40;;;9.10;99.90;;;;;;5028486;28;20499;-80
2023/12/11 09:04:53;;;;;;;1.70;0.40;;;9.10;99.90;;;;;;5012701;28;20033;-80
2023/12/11 09:07:18;;;;;;;0.38;0.22;;;9.10;99.90;;;;;;5028593;28;20060;-80
2023/12/11 09:09:44;;;;;;;4.05;0.30;;;9.20;99.90;;;;;;5012974;28;20476;-80
2023/12/11 09:12:10;;;;;;;2.38;0.80;;;9.20;99.90;;;;;;5028834;28;20463;-80
2023/12/11 09:14:35;;;;;;;1.17;0.73;;;9.20;99.90;;;;;;5028625;28;20124;-80
2023/12/11 09:17:01;;;;;;;0.30;0.20;;;9.20;99.90;;;;;;5028304;28;20049;-80
2023/12/11 09:19:28;;;;;;;0.52;0.25;;;9.20;99.90;;;;;;5012305;28;20053;-80
2023/12/11 09:21:54;;;;;;;1.23;0.32;;;9.20;99.90;;;;;;5027559;28;20041;-80
2023/12/11 09:24:20;;;;;;;0.40;0.25;;;9.20;99.90;;;;;;5012680;28;20033;-80
2023/12/11 09:26:45;;;;;;;4.68;0.40;;;9.20;99.90;;;;;;5028832;28;20038;-80
2023/12/11 09:29:11;;;;;;;0.68;0.30;;;9.20;99.90;;;;;;5011982;28;20033;-80
2023/12/11 09:31:38;;;;;;;1.13;0.50;;;9.20;99.90;;;;;;5028439;28;20392;-80
2023/12/11 09:34:03;;;;;;;9.80;0.95;;;9.20;99.90;;;;;;5028575;28;20056;-80
2023/12/11 09:36:29;;;;;;;1.20;0.50;;;9.20;99.90;;;;;;5027879;28;20041;-80
2023/12/11 09:38:58;;;;;;;4.57;0.65;;;9.20;99.90;;;;;;5012249;28;20041;-80
2023/12/11 09:41:31;;;;;;;0.95;0.35;;;9.30;99.90;;;;;;5012267;28;20669;-80
2023/12/11 09:43:58;;;;;;;9.25;1.15;;;9.30;99.90;;;;;;5012023;28;20128;-80
2023/12/11 09:46:24;;;;;;;2.75;0.60;;;9.30;99.90;;;;;;5028253;28;20041;-80
2023/12/11 09:48:51;;;;;;;0.73;0.28;;;9.30;99.90;;;;;;5028785;28;20056;-80
2023/12/11 09:51:17;;;;;;;5.50;0.80;;;9.40;99.90;;;;;;5011765;28;20037;-80
2023/12/11 09:53:43;;;;;;;1.65;0.25;;;9.40;99.90;;;;;;5011731;28;20411;-80
2023/12/11 09:56:12;;;;;;;0.22;0.20;;;9.40;99.90;;;;;;5028279;28;20045;-80
2023/12/11 09:58:39;;;;;;;0.73;0.20;;;9.40;99.90;;;;;;5028238;28;20115;-80
2023/12/11 10:01:06;;;;;;;1.65;0.40;;;9.50;99.90;;;;;;5028159;28;20045;-80
2023/12/11 10:03:32;;;;;;;3.40;0.40;;;9.40;99.90;;;;;;5011541;28;20128;-79
2023/12/11 10:06:03;;;;;;;0.00;0.00;;;9.50;99.90;;;;;;5028031;28;20128;-80
2023/12/11 10:08:30;;;;;;;1.25;0.55;;;9.50;99.90;;;;;;5010714;28;20037;-80
2023/12/11 10:11:09;;;;;;;1.58;0.35;;;9.50;99.90;;;;;;5027858;28;20377;-80
2023/12/11 10:13:35;;;;;;;2.28;0.50;;;9.50;99.90;;;;;;5012089;28;20045;-80
2023/12/11 10:16:01;;;;;;;0.77;0.40;;;9.50;99.90;;;;;;5011521;28;20137;-80
2023/12/11 10:18:27;;;;;;;2.28;0.13;;;9.50;99.90;;;;;;5011485;28;20041;-79
2023/12/11 10:20:56;;;;;;;3.25;0.40;;;9.40;99.90;;;;;;5028114;28;20048;-80
2023/12/11 10:23:22;;;;;;;0.93;0.55;;;9.50;99.90;;;;;;5010683;28;20041;-80
2023/12/11 10:25:53;;;;;;;0.40;0.17;;;9.50;99.90;;;;;;5012070;28;20125;-80
2023/12/11 10:28:20;;;;;;;0.35;0.10;;;9.50;99.90;;;;;;5028356;28;20533;-79
2023/12/11 10:30:58;;;;;;;0.17;0.10;;;9.50;99.90;;;;;;5011709;28;20105;-80
2023/12/11 10:33:26;;;;;;;0.52;0.15;;;9.50;99.90;;;;;;5027827;28;20503;-80
2023/12/11 10:35:56;;;;;;;1.45;0.30;;;9.50;99.90;;;;;;5011482;28;20530;-79
2023/12/11 10:38:24;;;;;;;1.95;0.52;;;9.50;99.90;;;;;;5010768;28;20129;-80
2023/12/11 10:40:51;;;;;;;0.60;0.32;;;9.50;99.90;;;;;;5013422;28;20063;-80
2023/12/11 10:43:17;;;;;;;2.50;0.32;;;9.50;99.90;;;;;;5015252;28;20516;-79
2023/12/11 10:45:44;;;;;;;1.42;0.20;;;9.50;99.90;;;;;;5031736;28;20041;-80
2023/12/11 10:48:09;;;;;;;1.23;0.10;;;9.50;99.90;;;;;;5031563;28;20037;-80
2023/12/11 10:50:36;;;;;;;2.28;0.43;;;9.50;99.90;;;;;;5031555;28;20095;-80
2023/12/11 10:53:03;;;;;;;0.75;0.22;;;9.50;99.90;;;;;;5014110;28;20045;-80
2023/12/11 10:55:33;;;;;;;2.08;0.50;;;9.60;99.90;;;;;;5015058;28;20052;-80
2023/12/11 10:58:01;;;;;;;3.70;0.90;;;9.60;99.90;;;;;;5015030;28;20084;-80
2023/12/11 11:00:30;;;;;;;1.95;0.63;;;9.60;99.90;;;;;;5014898;28;20122;-80
2023/12/11 11:02:57;;;;;;;1.55;0.85;;;9.60;99.90;;;;;;5014825;28;20052;-80
2023/12/11 11:05:25;;;;;;;1.02;0.63;;;9.60;99.90;;;;;;5014798;28;20088;-79
2023/12/11 11:08:15;;;;;;;5.80;0.60;;;9.70;99.90;;;;;;5030610;28;20033;-80
2023/12/11 11:10:49;;;;;;;3.15;0.65;;;9.70;99.90;;;;;;5031516;28;20041;-80
2023/12/11 11:13:21;;;;;;;3.50;0.40;;;9.70;99.90;;;;;;5031142;28;20441;-80
2023/12/11 11:15:53;;;;;;;0.30;0.13;;;9.60;99.90;;;;;;5014579;28;20102;-80
2023/12/11 11:18:20;;;;;;;0.55;0.13;;;9.60;99.90;;;;;;5030951;28;20124;-79
2023/12/11 11:21:12;;;;;;;1.15;0.57;;;9.60;99.90;;;;;;5014521;28;20045;-80
2023/12/11 11:23:42;;;;;;;1.15;0.45;;;9.50;99.90;;;;;;5030290;28;20033;-80
2023/12/11 11:26:32;;;;;;;3.13;0.30;;;9.50;99.90;;;;;;5030754;28;20153;-80
2023/12/11 11:28:57;;;;;;;2.65;0.40;;;9.50;99.90;;;;;;5030972;28;20309;-80
2023/12/11 11:31:47;;;;;;;6.13;0.65;;;9.40;99.90;;;;;;5014381;28;20076;-79
2023/12/11 11:34:13;;;;;;;3.65;0.50;;;9.40;99.90;;;;;;5030681;28;20540;-80
2023/12/11 11:36:46;;;;;;;2.45;0.10;;;9.40;99.90;;;;;;5029822;28;20045;-80
2023/12/11 11:39:12;;;;;;;0.88;0.30;;;9.40;99.90;;;;;;5014223;28;20483;-80
2023/12/11 11:41:39;;;;;;;1.63;0.43;;;9.40;99.90;;;;;;5030691;28;20045;-80
2023/12/11 11:44:06;;;;;;;2.28;0.60;;;9.40;99.90;;;;;;5014198;28;20033;-80
2023/12/11 11:46:49;;;;;;;2.92;0.30;;;9.40;99.90;;;;;;5030299;28;20395;-81
2023/12/11 11:49:27;;;;;;;3.20;1.17;;;9.50;99.90;;;;;;5013925;28;20487;-80
2023/12/11 11:51:53;;;;;;;0.25;0.10;;;9.50;99.90;;;;;;5029586;28;20034;-80
2023/12/11 11:54:23;;;;;;;0.50;0.20;;;9.50;99.90;;;;;;5030602;28;20405;-80
2023/12/11 11:56:49;;;;;;;0.75;0.30;;;9.50;99.90;;;;;;5030824;28;20381;-80
2023/12/11 11:59:15;;;;;;;5.10;0.40;;;9.50;99.90;;;;;;5030284;28;20047;-80
2023/12/11 12:01:51;;;;;;;2.78;0.90;;;9.50;99.90;;;;;;5030361;28;20128;-80
2023/12/11 12:04:31;;;;;;;0.95;0.28;;;9.50;99.90;;;;;;5013710;28;20044;-80
2023/12/11 12:06:59;;;;;;;1.05;0.75;;;9.50;99.90;;;;;;5029541;28;20041;-80
2023/12/11 12:09:25;;;;;;;2.13;0.60;;;9.50;99.90;;;;;;5013918;28;20478;-79
2023/12/11 12:11:52;;;;;;;2.55;0.38;;;9.50;99.90;;;;;;5013877;28;20140;-80
2023/12/11 12:14:17;;;;;;;0.20;0.15;;;9.50;99.90;;;;;;5013596;28;20064;-80
2023/12/11 12:16:43;;;;;;;3.00;0.60;;;9.40;99.90;;;;;;5029636;28;20123;-80
2023/12/11 12:19:09;;;;;;;2.03;0.63;;;9.50;99.90;;;;;;5013499;28;20077;-80
2023/12/11 12:21:55;;;;;;;5.45;0.80;;;9.50;99.90;;;;;;5012454;28;20037;-80
2023/12/11 12:24:21;;;;;;;3.75;0.38;;;9.40;99.90;;;;;;5013576;28;20090;-80
2023/12/11 12:26:56;;;;;;;5.57;0.52;;;9.40;99.90;;;;;;5030015;28;20033;-80
2023/12/11 12:29:22;;;;;;;6.28;0.82;;;9.30;99.90;;;;;;5013606;28;20033;-80
2023/12/11 12:31:48;;;;;;;1.50;0.45;;;9.30;99.90;;;;;;5029723;28;20132;-80
2023/12/11 12:34:16;;;;;;;0.40;0.30;;;9.20;99.90;;;;;;5013184;28;20179;-80
2023/12/11 12:36:43;;;;;;;4.25;0.90;;;9.20;99.90;;;;;;5028511;28;20045;-80
2023/12/11 12:39:12;;;;;;;0.30;0.10;;;9.20;99.90;;;;;;5013351;28;20091;-80
2023/12/11 12:41:38;;;;;;;2.40;0.30;;;9.10;99.90;;;;;;5029757;28;20518;-80
2023/12/11 12:44:03;;;;;;;1.95;0.47;;;9.10;99.90;;;;;;5029335;28;20041;-80
2023/12/11 12:46:40;;;;;;;0.63;0.20;;;9.10;99.90;;;;;;5029423;28;20037;-79
2023/12/11 12:49:11;;;;;;;4.30;0.52;;;9.10;99.90;;;;;;5029346;28;20045;-80
2023/12/11 12:52:03;;;;;;;1.80;0.55;;;9.20;99.90;;;;;;5028205;28;20033;-80
2023/12/11 12:54:47;;;;;;;0.70;0.20;;;9.10;99.90;;;;;;5011167;28;20057;-79
2023/12/11 12:57:13;;;;;;;2.13;0.68;;;9.10;99.90;;;;;;5012879;28;20056;-80